Alges — CSPH — position and weather

sailwx.info

Track history (hours):
 
Tides and Currents Weather Stations Pressure Air Temp Water Temp Dewpoint Dewpoint Depression Visibility Wind Speed Wind Dir Waves Ship Positions

Alges

Last reported at 2014-Jul-28 20:33 UTC. Time now 2014-Jul-28 20:42 UTC.
Position N 38°39' W 009°06'.

Length 45 m; draft 24.8 m.

Type: Passenger vessel. MMSI: 263700008.

Date/timePositionNaut miles runAvg speedWind from/ knotsBaromVisibWave heightAir tempDewpointWater temp
2014-Jul-28 20:33N 38°39' W 009°06'0 0.4
2014-Jul-28 19:34N 38°39' W 009°06'3 3.3
2014-Jul-28 18:34N 38°42' W 009°09'0 0.4
2014-Jul-28 17:33N 38°42' W 009°09'3 3.4
2014-Jul-28 16:34N 38°40' W 009°06'1 0.8
2014-Jul-28 15:33N 38°39' W 009°06'0 0.0
2014-Jul-28 09:24N 38°39' W 009°06'0 0.1
2014-Jul-28 08:33N 38°39' W 009°06'4 4.1
2014-Jul-28 07:33N 38°42' W 009°09'2 1.8
2014-Jul-28 06:34N 38°41' W 009°08'2 2.3
2014-Jul-28 05:33N 38°39' W 009°06'  
2014-Jul-25 19:33N 38°41' W 009°08'2 2.4
2014-Jul-25 18:33N 38°39' W 009°06'0 0.3
2014-Jul-25 17:33N 38°39' W 009°06'4 3.9
2014-Jul-25 16:34N 38°42' W 009°08'0 0.2
2014-Jul-25 15:31N 38°42' W 009°09'1 1.2
2014-Jul-25 14:33N 38°41' W 009°09'0 0.0
2014-Jul-25 13:33N 38°41' W 009°09'0 0.0
2014-Jul-25 09:33N 38°41' W 009°09'0 0.0
2014-Jul-25 08:34N 38°41' W 009°09'1 0.9
2014-Jul-25 07:33N 38°42' W 009°08'1 0.5
2014-Jul-25 06:33N 38°42' W 009°08'0 0.2
2014-Jul-25 05:34N 38°42' W 009°08'6 5.7
2014-Jul-25 04:33N 38°42' W 009°00'0 0.1
2014-Jul-24 22:34N 38°42' W 009°01'0 0.3
2014-Jul-24 21:34N 38°42' W 009°01'0 0.3
2014-Jul-24 20:34N 38°42' W 009°01'0 0.3
2014-Jul-24 19:33N 38°42' W 009°00'1 0.7
2014-Jul-24 18:33N 38°42' W 009°01'0 0.1
2014-Jul-24 17:34N 38°42' W 009°01'0 0.0
2014-Jul-24 16:33N 38°42' W 009°01'0 0.1
2014-Jul-24 15:34N 38°42' W 009°01'1 0.1
2014-Jul-24 10:22N 38°42' W 009°00'0 0.2
2014-Jul-24 09:34N 38°42' W 009°01'6 5.5
2014-Jul-24 08:30N 38°42' W 009°08'0 0.3
2014-Jul-24 07:33N 38°42' W 009°08'0 0.3
2014-Jul-24 06:31N 38°42' W 009°08'0 0.4
2014-Jul-24 05:33N 38°42' W 009°08'6 5.7
2014-Jul-24 04:34N 38°42' W 009°00'1 0.2
2014-Jul-23 22:34N 38°41' W 009°02'0 0.5
2014-Jul-23 21:34N 38°42' W 009°01'1 0.7
2014-Jul-23 20:33N 38°42' W 009°00'0 0.2
2014-Jul-23 19:33N 38°42' W 009°01'0 0.4
2014-Jul-23 18:34N 38°42' W 009°01'0 0.4
2014-Jul-23 17:34N 38°42' W 009°01'0 0.2
2014-Jul-23 16:33N 38°42' W 009°01'0 0.0
2014-Jul-23 15:33N 38°42' W 009°01'1 0.2
2014-Jul-23 10:34N 38°41' W 009°02'5 4.9
2014-Jul-23 09:33N 38°41' W 009°09'1 0.7
2014-Jul-23 08:33N 38°42' W 009°08'1 0.6
2014-Jul-23 07:33N 38°42' W 009°08'0 0.3
2014-Jul-23 06:32N 38°42' W 009°08'1 1.5
2014-Jul-23 05:33N 38°41' W 009°09'0 0.0
2014-Jul-22 10:04N 38°41' W 009°09'  
Track history (hours):
 
Tides and Currents Weather Stations Pressure Air Temp Water Temp Dewpoint Dewpoint Depression Visibility Wind Speed Wind Dir Waves Ship Positions

Alges

Last reported at 2014-Jul-28 20:33 UTC. Time now 2014-Jul-28 20:42 UTC.
Position N 38°39' W 009°06'.

Length 45 m; draft 24.8 m.

Type: Passenger vessel. MMSI: 263700008.

Date/timePositionNaut miles runAvg speedWind from/ knotsBaromVisibWave heightAir tempDewpointWater temp
2014-Jul-28 20:33N 38°39' W 009°06'0 0.4
2014-Jul-28 19:34N 38°39' W 009°06'3 3.3
2014-Jul-28 18:34N 38°42' W 009°09'0 0.4
2014-Jul-28 17:33N 38°42' W 009°09'3 3.4
2014-Jul-28 16:34N 38°40' W 009°06'1 0.8
2014-Jul-28 15:33N 38°39' W 009°06'0 0.0
2014-Jul-28 09:24N 38°39' W 009°06'0 0.1
2014-Jul-28 08:33N 38°39' W 009°06'4 4.1
2014-Jul-28 07:33N 38°42' W 009°09'2 1.8
2014-Jul-28 06:34N 38°41' W 009°08'2 2.3
2014-Jul-28 05:33N 38°39' W 009°06'  
2014-Jul-25 19:33N 38°41' W 009°08'2 2.4
2014-Jul-25 18:33N 38°39' W 009°06'0 0.3
2014-Jul-25 17:33N 38°39' W 009°06'4 3.9
2014-Jul-25 16:34N 38°42' W 009°08'0 0.2
2014-Jul-25 15:31N 38°42' W 009°09'1 1.2
2014-Jul-25 14:33N 38°41' W 009°09'0 0.0
2014-Jul-25 13:33N 38°41' W 009°09'0 0.0
2014-Jul-25 09:33N 38°41' W 009°09'0 0.0
2014-Jul-25 08:34N 38°41' W 009°09'1 0.9
2014-Jul-25 07:33N 38°42' W 009°08'1 0.5
2014-Jul-25 06:33N 38°42' W 009°08'0 0.2
2014-Jul-25 05:34N 38°42' W 009°08'6 5.7
2014-Jul-25 04:33N 38°42' W 009°00'0 0.1
2014-Jul-24 22:34N 38°42' W 009°01'0 0.3
2014-Jul-24 21:34N 38°42' W 009°01'0 0.3
2014-Jul-24 20:34N 38°42' W 009°01'0 0.3
2014-Jul-24 19:33N 38°42' W 009°00'1 0.7
2014-Jul-24 18:33N 38°42' W 009°01'0 0.1
2014-Jul-24 17:34N 38°42' W 009°01'0 0.0
2014-Jul-24 16:33N 38°42' W 009°01'0 0.1
2014-Jul-24 15:34N 38°42' W 009°01'1 0.1
2014-Jul-24 10:22N 38°42' W 009°00'0 0.2
2014-Jul-24 09:34N 38°42' W 009°01'6 5.5
2014-Jul-24 08:30N 38°42' W 009°08'0 0.3
2014-Jul-24 07:33N 38°42' W 009°08'0 0.3
2014-Jul-24 06:31N 38°42' W 009°08'0 0.4
2014-Jul-24 05:33N 38°42' W 009°08'6 5.7
2014-Jul-24 04:34N 38°42' W 009°00'1 0.2
2014-Jul-23 22:34N 38°41' W 009°02'0 0.5
2014-Jul-23 21:34N 38°42' W 009°01'1 0.7
2014-Jul-23 20:33N 38°42' W 009°00'0 0.2
2014-Jul-23 19:33N 38°42' W 009°01'0 0.4
2014-Jul-23 18:34N 38°42' W 009°01'0 0.4
2014-Jul-23 17:34N 38°42' W 009°01'0 0.2
2014-Jul-23 16:33N 38°42' W 009°01'0 0.0
2014-Jul-23 15:33N 38°42' W 009°01'1 0.2
2014-Jul-23 10:34N 38°41' W 009°02'5 4.9
2014-Jul-23 09:33N 38°41' W 009°09'1 0.7
2014-Jul-23 08:33N 38°42' W 009°08'1 0.6
2014-Jul-23 07:33N 38°42' W 009°08'0 0.3
2014-Jul-23 06:32N 38°42' W 009°08'1 1.5
2014-Jul-23 05:33N 38°41' W 009°09'0 0.0
2014-Jul-22 10:04N 38°41' W 009°09'  

Dump ship's entire track history